Time;durP1;ratioP1;P1;durP2;ratioP2;P2;SDS_P1;SDS_P2;PMS_P1;PMS_P2;Temp;Humidity;BMP_temperature;BMP_pressure;BME280_temperature;BME280_humidity;BME280_pressure;Samples;Min_cycle;Max_cycle;Signal;HPM_P1;HPM_P2
2023/03/21 00:00:19;;;;;;;;;23.25;19.75;;;;;15.30;54.67;100964.78;5072642;28;45750;-75
2023/03/21 00:02:45;;;;;;;;;20.25;18.75;;;;;15.30;54.77;100972.69;5074072;28;46077;-76
2023/03/21 00:05:10;;;;;;;;;18.75;15.75;;;;;15.27;54.56;100976.47;5076357;27;46421;-75
2023/03/21 00:11:00;;;;;;;;;16.50;16.25;;;;;15.25;54.55;100962.53;5076453;28;45637;-76
2023/03/21 00:13:27;;;;;;;;;19.00;16.75;;;;;15.24;54.59;100967.94;5076119;27;45569;-76
2023/03/21 00:15:56;;;;;;;;;19.25;16.00;;;;;15.20;54.39;100967.38;5075992;27;47440;-76
2023/03/21 00:18:22;;;;;;;;;17.25;15.75;;;;;15.21;54.78;100961.13;5076083;27;46979;-77
2023/03/21 00:27:32;;;;;;;;;15.00;14.25;;;;;15.12;54.67;100952.19;5076165;28;45980;-75
2023/03/21 00:29:57;;;;;;;;;14.75;14.75;;;;;15.09;54.25;100947.16;5076266;28;46988;-75
2023/03/21 00:32:23;;;;;;;;;15.50;13.25;;;;;15.02;54.32;100932.81;5076023;27;45648;-76
2023/03/21 00:34:49;;;;;;;;;17.25;13.00;;;;;15.08;54.55;100945.50;5075620;28;45961;-77
2023/03/21 00:37:17;;;;;;;;;16.00;14.00;;;;;14.99;55.03;100933.09;5075655;27;46577;-76
2023/03/21 00:39:46;;;;;;;;;17.75;16.00;;;;;15.07;55.10;100949.09;5091583;27;47455;-75
2023/03/21 00:42:11;;;;;;;;;14.75;14.00;;;;;15.05;55.45;100948.41;5076155;27;45641;-76
2023/03/21 00:44:39;;;;;;;;;18.25;15.75;;;;;15.05;55.19;100948.41;5075571;28;45699;-75
2023/03/21 00:47:05;;;;;;;;;14.50;14.00;;;;;15.05;55.25;100945.75;5075195;27;46653;-75
2023/03/21 00:49:32;;;;;;;;;17.00;16.00;;;;;14.84;55.04;100915.06;5076083;28;46196;-76
2023/03/21 00:52:05;;;;;;;;;16.25;15.00;;;;;15.01;55.12;100933.78;5075940;28;45635;-75
2023/03/21 00:54:31;;;;;;;;;14.25;13.50;;;;;15.00;55.29;100932.13;5075357;27;45732;-75
2023/03/21 00:56:57;;;;;;;;;16.25;13.00;;;;;14.98;55.25;100933.19;5075405;28;47950;-76
2023/03/21 00:59:22;;;;;;;;;14.50;13.75;;;;;14.97;54.78;100931.53;5075636;28;45684;-75
2023/03/21 01:01:48;;;;;;;;;13.00;11.00;;;;;14.94;55.11;100924.72;5075891;27;45849;-76
2023/03/21 01:04:15;;;;;;;;;16.50;14.00;;;;;14.94;54.75;100927.34;5075540;28;46044;-73
2023/03/21 01:06:42;;;;;;;;;14.75;14.00;;;;;14.93;55.02;100927.47;5075260;27;46524;-76
2023/03/21 01:09:16;;;;;;;;;12.50;12.00;;;;;14.87;54.96;100917.44;5075355;27;46977;-75
2023/03/21 01:11:43;;;;;;;;;19.75;13.00;;;;;14.90;54.95;100930.38;5075737;27;45849;-76
2023/03/21 01:14:09;;;;;;;;;14.25;13.00;;;;;14.86;55.02;100916.59;5090406;27;45834;-75
2023/03/21 01:16:35;;;;;;;;;13.00;13.00;;;;;14.86;54.94;100918.41;5075235;27;46264;-75
2023/03/21 01:19:01;;;;;;;;;17.25;15.00;;;;;14.86;54.72;100919.22;5075448;28;45910;-76
2023/03/21 01:21:26;;;;;;;;;13.50;11.75;;;;;14.86;54.36;100915.75;5073962;28;45700;-76
2023/03/21 01:27:13;;;;;;;;;13.25;13.00;;;;;14.81;54.22;100916.16;5075156;28;45743;-74
2023/03/21 01:29:38;;;;;;;;;11.25;11.00;;;;;14.79;54.54;100899.59;5075233;28;45901;-76
2023/03/21 01:32:05;;;;;;;;;14.00;11.50;;;;;14.77;54.14;100906.00;5075751;27;45812;-75
2023/03/21 01:34:30;;;;;;;;;11.00;9.50;;;;;14.76;54.10;100915.69;5075469;27;45705;-75
2023/03/21 01:36:55;;;;;;;;;15.50;12.50;;;;;14.74;54.08;100912.34;5073339;28;46826;-75
2023/03/21 01:39:21;;;;;;;;;10.25;10.25;;;;;14.69;54.41;100915.38;5075243;27;45899;-75
2023/03/21 01:41:46;;;;;;;;;13.00;11.00;;;;;14.70;54.21;100903.84;5075112;27;45656;-75
2023/03/21 01:44:17;;;;;;;;;9.75;9.75;;;;;14.63;54.18;100894.78;5074828;27;45809;-74
2023/03/21 01:46:51;;;;;;;;;10.00;10.00;;;;;14.67;54.21;100904.13;5074362;27;47319;-74
2023/03/21 01:49:24;;;;;;;;;11.50;10.25;;;;;14.64;54.02;100898.25;5074504;27;47051;-74
2023/03/21 01:51:56;;;;;;;;;13.50;10.00;;;;;14.62;53.90;100895.75;5075150;27;45740;-75
2023/03/21 01:57:51;;;;;;;;;5.50;3.50;;;;;14.64;53.77;100898.25;5074523;28;45696;-74
2023/03/21 02:00:19;;;;;;;;;11.75;11.00;;;;;14.60;53.62;100883.66;5074683;27;46359;-75
2023/03/21 02:02:49;;;;;;;;;12.75;9.75;;;;;14.64;53.63;100887.69;5090049;27;45688;-74
2023/03/21 02:05:22;;;;;;;;;6.75;6.25;;;;;14.64;53.32;100887.69;5074494;27;46026;-74
2023/03/21 02:07:51;;;;;;;;;7.25;7.25;;;;;14.56;53.76;100875.19;5074193;27;47372;-75
2023/03/21 02:10:17;;;;;;;;;10.00;7.25;;;;;14.61;53.56;100880.91;5074572;27;46292;-75
2023/03/21 02:12:42;;;;;;;;;10.00;9.00;;;;;14.60;53.33;100878.38;5074433;28;45713;-74
2023/03/21 02:15:08;;;;;;;;;7.75;7.00;;;;;14.60;53.32;100876.59;5074657;28;45654;-75
2023/03/21 02:17:53;;;;;;;;;9.00;8.00;;;;;14.58;53.11;100867.97;5074444;27;45656;-76
2023/03/21 02:20:55;;;;;;;;;6.50;5.25;;;;;14.59;53.22;100879.34;5074567;27;46073;-73
2023/03/21 02:23:30;;;;;;;;;6.25;6.00;;;;;14.57;52.93;100860.19;5074089;28;45683;-73
2023/03/21 02:26:25;;;;;;;;;5.00;4.75;;;;;14.55;52.78;100860.31;5073509;28;45932;-75
2023/03/21 02:29:08;;;;;;;;;9.00;8.25;;;;;14.55;53.13;100862.13;5074207;27;46355;-73
2023/03/21 02:31:59;;;;;;;;;7.25;5.25;;;;;14.53;52.76;100859.59;5074218;27;46609;-75
2023/03/21 02:34:56;;;;;;;;;5.00;5.00;;;;;14.51;52.72;100850.16;5089360;27;45801;-75
2023/03/21 02:37:31;;;;;;;;;9.00;7.75;;;;;14.50;52.85;100856.38;5074556;28;45894;-74
2023/03/21 02:40:09;;;;;;;;;6.75;4.25;;;;;14.45;52.37;100840.13;5073997;27;45701;-75
2023/03/21 02:43:04;;;;;;;;;6.00;5.25;;;;;14.45;52.30;100842.75;5089478;27;46888;-77
2023/03/21 02:45:43;;;;;;;;;5.50;5.00;;;;;14.41;52.14;100836.91;5074779;27;45743;-76
2023/03/21 02:48:13;;;;;;;;;5.50;5.00;;;;;14.39;52.00;100836.19;5074070;27;45592;-75
2023/03/21 02:50:52;;;;;;;;;4.00;4.00;;;;;14.29;52.17;100825.56;5074107;27;46179;-75
2023/03/21 02:56:41;;;;;;;;;4.75;4.50;;;;;14.28;51.98;100823.03;5073160;28;45735;-76
2023/03/21 02:59:08;;;;;;;;;4.00;3.75;;;;;14.32;51.58;100831.50;5074354;28;45924;-74
2023/03/21 03:01:34;;;;;;;;;6.75;6.00;;;;;14.34;51.90;100832.25;5089691;27;47780;-76
2023/03/21 03:03:59;;;;;;;;;3.25;3.00;;;;;14.28;51.82;100825.69;5073680;28;47090;-75
2023/03/21 03:06:46;;;;;;;;;4.00;4.00;;;;;14.29;51.76;100835.25;5073572;28;45663;-73
2023/03/21 03:12:36;;;;;;;;;4.00;3.75;;;;;14.26;51.54;100824.94;5073254;28;46299;-74
2023/03/21 03:15:16;;;;;;;;;4.00;3.75;;;;;14.19;51.78;100818.53;5073957;28;45988;-75
2023/03/21 03:18:05;;;;;;;;;5.00;3.50;;;;;14.22;51.45;100820.91;5073637;27;45805;-75
2023/03/21 03:21:04;;;;;;;;;3.00;2.00;;;;;14.23;51.58;100823.44;5074007;27;45879;-74
2023/03/21 03:23:51;;;;;;;;;3.25;3.00;;;;;14.22;51.51;100820.91;5073218;27;46439;-75
2023/03/21 03:26:29;;;;;;;;;4.25;4.00;;;;;14.18;51.15;100817.69;5073684;28;46066;-76
2023/03/21 03:29:00;;;;;;;;;3.25;3.00;;;;;14.19;51.42;100822.03;5073390;27;45776;-74
2023/03/21 03:31:30;;;;;;;;;4.25;3.75;;;;;14.16;51.39;100819.63;5074113;27;45607;-75
2023/03/21 03:34:06;;;;;;;;;3.25;3.25;;;;;14.18;51.37;100815.06;5073339;27;47526;-74
2023/03/21 03:36:37;;;;;;;;;3.00;2.00;;;;;14.17;51.53;100817.81;5073746;28;45971;-73
2023/03/21 03:39:07;;;;;;;;;3.75;2.50;;;;;14.14;51.00;100820.72;5073043;27;45751;-75
2023/03/21 03:41:40;;;;;;;;;3.50;3.50;;;;;14.11;50.95;100818.31;5074085;27;45874;-74
2023/03/21 03:44:05;;;;;;;;;3.25;3.00;;;;;14.14;51.01;100808.34;5073453;27;45791;-73
2023/03/21 03:46:41;;;;;;;;;3.00;3.00;;;;;14.14;50.86;100815.44;5073265;28;45648;-75
2023/03/21 03:49:14;;;;;;;;;2.50;2.50;;;;;14.01;50.85;100794.53;5072952;28;45507;-74
2023/03/21 03:52:08;;;;;;;;;4.00;4.00;;;;;14.07;51.09;100801.09;5073298;27;45593;-76
2023/03/21 03:54:41;;;;;;;;;3.00;3.00;;;;;14.10;50.88;100812.22;5030585;28;46692;-75
2023/03/21 03:57:07;;;;;;;;;5.00;4.00;;;;;14.07;51.05;100809.84;5030634;28;45908;-75
2023/03/21 03:59:35;;;;;;;;;4.50;3.00;;;;;14.07;51.11;100814.28;5014275;28;46097;-74
2023/03/21 04:02:00;;;;;;;;;4.50;3.00;;;;;14.07;51.07;100804.56;5030023;28;45743;-77
2023/03/21 04:04:27;;;;;;;;;4.00;3.25;;;;;14.06;51.20;100797.63;5029939;28;45574;-76
2023/03/21 04:06:54;;;;;;;;;3.50;3.00;;;;;14.03;51.13;100805.81;5030182;28;47055;-76
2023/03/21 04:09:20;;;;;;;;;2.25;2.25;;;;;14.04;51.08;100804.81;5029939;28;45985;-75
2023/03/21 04:11:47;;;;;;;;;8.00;4.00;;;;;14.04;50.91;100809.25;5030449;28;45882;-77
2023/03/21 04:14:13;;;;;;;;;3.75;3.25;;;;;13.99;51.22;100807.00;5029952;28;46382;-74
2023/03/21 04:16:38;;;;;;;;;5.00;3.75;;;;;14.03;51.63;100815.50;5030344;28;45809;-76
2023/03/21 04:19:03;;;;;;;;;4.00;3.50;;;;;13.98;51.43;100825.56;5030084;28;45729;-74
2023/03/21 04:21:29;;;;;;;;;4.50;4.00;;;;;13.98;51.18;100821.13;5030391;28;45984;-75
2023/03/21 04:23:54;;;;;;;;;3.75;3.50;;;;;13.92;51.35;100807.63;5029720;28;45631;-75
2023/03/21 04:29:41;;;;;;;;;4.25;4.00;;;;;13.95;51.45;100826.66;5029592;28;45694;-75
2023/03/21 04:32:15;;;;;;;;;3.75;3.75;;;;;13.93;51.44;100828.56;5061519;28;45848;-74
2023/03/21 04:34:42;;;;;;;;;3.00;3.00;;;;;13.91;51.63;100816.50;5073005;27;46910;-74
2023/03/21 04:37:10;;;;;;;;;3.75;3.50;;;;;13.94;51.43;100816.22;5072922;27;46274;-75
2023/03/21 04:39:37;;;;;;;;;4.00;3.00;;;;;13.91;51.46;100804.16;5073034;27;45780;-76
2023/03/21 04:42:03;;;;;;;;;4.50;3.00;;;;;13.94;51.77;100806.53;5072437;27;45805;-75
2023/03/21 04:44:28;;;;;;;;;5.00;4.00;;;;;13.92;51.25;100805.00;5072709;27;45509;-75
2023/03/21 04:46:53;;;;;;;;;3.00;3.00;;;;;13.93;51.23;100814.59;5072642;27;45632;-76
2023/03/21 04:49:20;;;;;;;;;4.75;4.00;;;;;13.89;51.30;100803.44;5072938;27;45577;-76
2023/03/21 04:51:45;;;;;;;;;4.75;3.25;;;;;13.92;51.50;100808.47;5076635;28;46011;-75
2023/03/21 04:54:12;;;;;;;;;4.00;3.00;;;;;13.84;51.48;100803.81;5075897;27;46812;-74
2023/03/21 04:59:59;;;;;;;;;4.00;3.50;;;;;13.81;51.35;100803.25;5076152;28;45850;-75
2023/03/21 05:02:24;;;;;;;;;5.00;4.25;;;;;13.87;51.41;100815.91;5075288;28;45635;-78
2023/03/21 05:04:50;;;;;;;;;4.50;3.75;;;;;13.85;51.39;100808.13;5075703;27;46092;-77
2023/03/21 05:07:15;;;;;;;;;4.00;3.00;;;;;13.84;51.84;100809.09;5075538;28;46171;-77
2023/03/21 05:09:40;;;;;;;;;5.00;3.50;;;;;13.72;51.46;100799.53;5075445;28;45628;-76
2023/03/21 05:15:28;;;;;;;;;4.25;4.00;;;;;13.77;51.39;100805.28;5075196;28;45609;-75
2023/03/21 05:17:53;;;;;;;;;4.00;3.00;;;;;13.73;51.69;100803.03;5075417;27;45574;-73
2023/03/21 05:20:18;;;;;;;;;4.75;4.00;;;;;13.79;52.02;100810.41;5075430;28;45466;-75
2023/03/21 05:22:45;;;;;;;;;4.25;3.25;;;;;13.72;51.85;100793.44;5075636;27;45569;-75
2023/03/21 05:25:12;;;;;;;;;5.00;4.50;;;;;13.75;51.38;100796.69;5075416;27;45834;-75
2023/03/21 05:27:43;;;;;;;;;4.50;4.00;;;;;13.79;51.77;100797.25;5075249;27;47354;-74
2023/03/21 05:30:16;;;;;;;;;6.00;3.25;;;;;13.78;52.13;100800.84;5091150;27;45854;-77
2023/03/21 05:32:41;;;;;;;;;4.00;4.00;;;;;13.72;52.12;100799.53;5075356;27;45675;-74
2023/03/21 05:35:07;;;;;;;;;4.75;4.75;;;;;13.73;51.95;100801.22;5074719;28;46520;-73
2023/03/21 05:37:33;;;;;;;;;8.00;5.00;;;;;13.75;52.41;100799.31;5075369;28;45720;-74
2023/03/21 05:39:58;;;;;;;;;6.00;4.25;;;;;13.70;52.22;100790.13;5091244;27;46036;-76
2023/03/21 05:45:47;;;;;;;;;4.25;4.00;;;;;13.72;52.72;100782.91;5074822;28;46045;-76
2023/03/21 05:48:12;;;;;;;;;4.50;4.50;;;;;13.69;52.83;100791.91;5074894;27;46003;-77
2023/03/21 05:50:38;;;;;;;;;5.75;5.00;;;;;13.67;53.01;100790.34;5090736;27;45719;-75
2023/03/21 05:53:03;;;;;;;;;5.75;5.00;;;;;13.66;53.48;100786.88;5075341;27;45571;-75
2023/03/21 05:55:28;;;;;;;;;5.00;4.00;;;;;13.68;53.08;100797.28;5074847;28;47241;-73
2023/03/21 05:57:54;;;;;;;;;6.75;5.50;;;;;13.52;53.34;100770.53;5072907;28;47483;-75
2023/03/21 06:00:20;;;;;;;;;2.00;2.00;;;;;13.68;53.08;100798.13;5074665;27;45878;-75
2023/03/21 06:02:46;;;;;;;;;5.75;3.75;;;;;13.69;53.05;100799.81;5074678;27;45821;-74
2023/03/21 06:05:12;;;;;;;;;5.00;4.50;;;;;13.69;53.41;100798.97;5074712;28;45741;-75
2023/03/21 06:07:37;;;;;;;;;6.00;4.50;;;;;13.69;53.80;100788.44;5074510;27;46231;-74
2023/03/21 06:10:03;;;;;;;;;6.25;5.50;;;;;13.67;53.59;100790.34;5074918;28;45648;-75
2023/03/21 06:15:50;;;;;;;;;8.00;4.25;;;;;13.67;53.59;100801.72;5074363;28;46005;-73
2023/03/21 06:18:16;;;;;;;;;5.00;5.00;;;;;13.67;53.77;100792.97;5074600;27;45692;-73
2023/03/21 06:20:41;;;;;;;;;5.00;4.25;;;;;13.62;53.76;100782.81;5074286;28;45659;-73
2023/03/21 06:23:06;;;;;;;;;5.00;5.00;;;;;13.66;54.03;100797.41;5074097;27;45605;-74
2023/03/21 06:25:32;;;;;;;;;5.50;4.50;;;;;13.65;53.73;100814.19;5089954;27;46321;-73
2023/03/21 06:31:21;;;;;;;;;15.25;15.00;;;;;13.62;53.67;100810.94;5074294;28;45878;-73
2023/03/21 06:33:47;;;;;;;;;9.75;9.00;;;;;13.61;53.68;100806.63;5073985;27;45889;-74
2023/03/21 06:36:13;;;;;;;;;9.50;8.00;;;;;13.61;53.77;100807.47;5074078;27;46468;-75
2023/03/21 06:38:38;;;;;;;;;8.25;7.00;;;;;13.60;54.29;100804.97;5073810;27;45996;-72
2023/03/21 06:41:04;;;;;;;;;8.00;7.50;;;;;13.58;54.33;100802.47;5074078;27;45755;-73
2023/03/21 06:46:52;;;;;;;;;8.00;8.00;;;;;13.56;54.25;100785.94;5073172;28;45971;-74
2023/03/21 06:49:18;;;;;;;;;7.00;7.00;;;;;13.58;54.59;100781.41;5074216;28;46731;-74
2023/03/21 06:51:44;;;;;;;;;8.00;7.75;;;;;13.57;54.53;100790.25;5073649;27;45743;-74
2023/03/21 06:54:09;;;;;;;;;9.25;8.75;;;;;13.57;54.43;100785.00;5089467;27;45909;-73
2023/03/21 06:56:35;;;;;;;;;9.00;7.00;;;;;13.55;54.41;100775.56;5073441;27;46818;-75
2023/03/21 06:59:00;;;;;;;;;8.00;6.00;;;;;13.56;54.42;100769.31;5074107;27;49688;-73
2023/03/21 07:01:29;;;;;;;;;11.00;9.50;;;;;13.57;54.91;100778.88;5073954;27;45676;-73
2023/03/21 07:03:56;;;;;;;;;10.25;8.00;;;;;13.55;54.63;100775.56;5073788;27;45865;-73
2023/03/21 07:06:22;;;;;;;;;4.75;4.75;;;;;13.56;55.07;100774.56;5073946;27;46702;-74
2023/03/21 07:08:47;;;;;;;;;8.75;8.25;;;;;13.58;54.92;100764.78;5073854;27;47205;-74
2023/03/21 07:11:13;;;;;;;;;8.00;6.75;;;;;13.61;54.54;100760.09;5090019;27;45670;-72
2023/03/21 07:17:00;;;;;;;;;8.75;8.00;;;;;13.64;54.67;100769.53;5073755;28;45808;-75
2023/03/21 07:19:26;;;;;;;;;10.00;8.00;;;;;13.65;54.45;100771.22;5072784;28;47173;-76
2023/03/21 07:21:52;;;;;;;;;11.25;9.00;;;;;13.65;54.51;100765.97;5088875;27;45923;-76
2023/03/21 07:24:17;;;;;;;;;10.50;8.75;;;;;13.66;54.68;100768.44;5073168;27;45590;-80
2023/03/21 07:26:42;;;;;;;;;10.00;10.00;;;;;13.67;54.67;100778.03;5072973;27;45636;-74
2023/03/21 07:32:34;;;;;;;;;9.75;9.75;;;;;13.63;55.04;100784.50;5073116;28;45503;-75
2023/03/21 07:34:59;;;;;;;;;10.00;8.75;;;;;13.62;55.16;100781.97;5073711;28;45768;-74
2023/03/21 07:37:25;;;;;;;;;11.00;9.00;;;;;13.62;54.81;100792.50;5073033;27;45615;-74
2023/03/21 07:39:51;;;;;;;;;13.75;8.50;;;;;13.59;55.22;100775.19;5073542;27;45535;-76
2023/03/21 07:42:16;;;;;;;;;10.25;8.25;;;;;13.48;55.32;100743.63;5072995;28;45727;-75
2023/03/21 07:44:42;;;;;;;;;9.00;9.00;;;;;13.62;55.22;100768.81;5073243;27;46102;-76
2023/03/21 07:47:07;;;;;;;;;8.25;8.00;;;;;13.58;55.17;100762.97;5073059;27;46339;-73
2023/03/21 07:49:32;;;;;;;;;13.00;9.00;;;;;13.52;55.12;100750.31;5073342;28;45575;-75
2023/03/21 07:51:59;;;;;;;;;8.50;8.25;;;;;13.59;55.00;100737.50;5072790;27;45653;-74
2023/03/21 07:54:24;;;;;;;;;11.75;10.00;;;;;13.62;55.04;100738.06;5072859;27;45502;-74
2023/03/21 07:56:50;;;;;;;;;11.75;10.75;;;;;13.64;54.78;100733.53;5072743;28;46434;-76
2023/03/21 08:02:37;;;;;;;;;9.00;9.00;;;;;13.66;55.35;100722.84;5072248;28;45904;-75
2023/03/21 08:05:03;;;;;;;;;11.00;11.00;;;;;13.68;55.47;100732.31;5073155;28;45533;-75
2023/03/21 08:07:29;;;;;;;;;9.25;9.25;;;;;13.67;55.33;100737.69;5072820;27;45540;-74
2023/03/21 08:09:55;;;;;;;;;9.75;9.50;;;;;13.71;55.41;100765.47;5072809;27;46279;-74
2023/03/21 08:12:20;;;;;;;;;10.50;10.25;;;;;13.72;55.08;100767.09;5071072;28;45835;-75
2023/03/21 08:14:45;;;;;;;;;10.75;8.75;;;;;13.72;55.10;100783.75;5088314;27;45881;-74
2023/03/21 08:17:11;;;;;;;;;9.50;9.50;;;;;13.73;55.31;100789.84;5072808;28;46637;-75
2023/03/21 08:19:36;;;;;;;;;9.50;9.50;;;;;13.74;55.29;100796.78;5088070;27;47129;-74
2023/03/21 08:22:04;;;;;;;;;12.75;11.00;;;;;13.71;55.22;100813.66;5072073;28;45770;-73
2023/03/21 08:24:30;;;;;;;;;8.25;7.50;;;;;13.64;55.52;100794.06;5074879;27;45693;-72
2023/03/21 08:26:56;;;;;;;;;11.00;10.00;;;;;13.69;55.55;100784.00;5076024;27;47387;-73
2023/03/21 08:32:43;;;;;;;;;12.75;9.25;;;;;13.74;55.79;100787.09;5075462;28;45609;-74
2023/03/21 08:35:11;;;;;;;;;8.25;8.25;;;;;13.74;55.73;100767.84;5091636;27;45640;-73
2023/03/21 08:37:38;;;;;;;;;10.50;6.75;;;;;13.78;55.79;100761.34;5075886;27;46406;-75
2023/03/21 08:40:07;;;;;;;;;10.00;9.00;;;;;13.84;55.33;100755.56;5075795;27;47088;-74
2023/03/21 08:42:33;;;;;;;;;8.75;7.25;;;;;13.88;55.37;100744.66;5075777;27;45662;-73
2023/03/21 08:44:59;;;;;;;;;10.00;9.50;;;;;13.95;55.38;100755.53;5075994;27;45703;-73
2023/03/21 08:47:24;;;;;;;;;12.25;11.25;;;;;13.99;55.41;100772.75;5075580;28;46516;-75
2023/03/21 08:49:49;;;;;;;;;9.75;8.00;;;;;14.02;55.23;100783.03;5075834;27;46149;-75
2023/03/21 08:52:15;;;;;;;;;11.25;9.25;;;;;14.05;55.66;100795.94;5075680;28;45575;-75
2023/03/21 08:54:40;;;;;;;;;8.25;8.25;;;;;14.05;55.51;100795.94;5075966;28;45792;-75
2023/03/21 08:57:07;;;;;;;;;10.75;8.00;;;;;14.10;55.53;100798.19;5075201;28;46393;-75
2023/03/21 09:02:57;;;;;;;;;9.00;7.75;;;;;14.23;55.39;100793.59;5075491;28;45639;-74
2023/03/21 09:05:24;;;;;;;;;5.00;4.50;;;;;14.25;55.15;100781.16;5075240;27;45481;-75
2023/03/21 09:07:51;;;;;;;;;7.00;7.00;;;;;14.29;55.23;100795.72;5075572;28;46449;-73
2023/03/21 09:10:19;;;;;;;;;7.50;5.00;;;;;14.29;55.08;100793.09;5075462;27;47014;-75
2023/03/21 09:12:45;;;;;;;;;5.00;5.00;;;;;14.30;55.50;100795.56;5075158;27;45604;-75
2023/03/21 09:19:07;;;;;;;;;7.25;5.00;;;;;14.40;55.47;100795.69;5075271;28;46034;-74
2023/03/21 09:21:26;;;;;;;;;8.25;6.25;;;;;14.39;55.04;100803.72;5075787;27;46007;-75
2023/03/21 09:23:54;;;;;;;;;3.50;3.50;;;;;14.33;55.47;100786.59;5075268;28;45709;-75
2023/03/21 09:26:20;;;;;;;;;6.25;6.25;;;;;14.41;55.21;100793.91;5075547;27;45821;-76
2023/03/21 09:28:46;;;;;;;;;7.75;6.75;;;;;14.38;55.60;100776.53;5075066;27;45720;-76
2023/03/21 09:31:13;;;;;;;;;9.75;6.25;;;;;14.45;55.34;100782.97;5075034;28;47116;-75
2023/03/21 09:33:40;;;;;;;;;5.50;5.25;;;;;14.47;55.27;100788.09;5074873;27;45749;-75
2023/03/21 09:36:12;;;;;;;;;6.00;5.00;;;;;14.32;55.25;100776.16;5074889;27;45713;-76
2023/03/21 09:38:41;;;;;;;;;4.00;4.00;;;;;14.42;55.28;100795.53;5074986;27;46440;-76
2023/03/21 09:41:26;;;;;;;;;5.25;4.25;;;;;14.41;55.55;100794.75;5074944;27;46092;-74
2023/03/21 09:44:04;;;;;;;;;7.00;4.25;;;;;14.43;55.66;100802.50;5090333;27;45683;-76
2023/03/21 09:46:41;;;;;;;;;5.00;4.25;;;;;14.44;55.68;100806.81;5074850;28;45627;-75
2023/03/21 09:49:17;;;;;;;;;4.00;4.00;;;;;14.38;55.80;100791.50;5074781;27;47358;-75
2023/03/21 09:51:45;;;;;;;;;4.25;4.25;;;;;14.45;56.04;100797.94;5073165;27;47931;-74
2023/03/21 09:54:39;;;;;;;;;5.00;4.00;;;;;14.43;55.95;100798.06;5074511;27;45921;-75
2023/03/21 09:57:31;;;;;;;;;5.50;5.00;;;;;14.41;55.79;100804.44;5069791;27;45597;-75
2023/03/21 10:00:07;;;;;;;;;4.75;4.75;;;;;14.36;55.88;100793.41;5074334;27;46634;-74
2023/03/21 10:02:48;;;;;;;;;5.00;4.75;;;;;14.39;55.81;100798.44;5074469;27;46485;-75
2023/03/21 10:05:28;;;;;;;;;5.75;4.25;;;;;14.39;55.85;100791.38;5074681;27;45724;-75
2023/03/21 10:08:03;;;;;;;;;5.75;5.00;;;;;14.43;56.28;100790.16;5075018;27;45676;-74
2023/03/21 10:10:35;;;;;;;;;3.00;2.00;;;;;14.46;56.11;100795.19;5074587;28;46419;-73
2023/03/21 10:13:04;;;;;;;;;6.50;4.75;;;;;14.54;56.18;100799.78;5074067;27;47284;-75
2023/03/21 10:15:29;;;;;;;;;4.00;3.25;;;;;14.58;55.93;100801.19;5089728;27;46396;-75
2023/03/21 10:17:59;;;;;;;;;4.25;4.00;;;;;14.64;55.89;100800.69;5074915;27;45689;-74
2023/03/21 10:20:33;;;;;;;;;3.00;3.00;;;;;14.71;55.82;100801.84;5074380;27;46574;-72
2023/03/21 10:23:03;;;;;;;;;5.00;4.00;;;;;14.79;55.77;100803.84;5074016;27;46102;-73
2023/03/21 10:25:31;;;;;;;;;7.75;5.75;;;;;14.85;55.98;100808.56;5074266;27;45765;-75
2023/03/21 10:27:58;;;;;;;;;6.00;6.00;;;;;14.89;55.94;100804.72;5074889;28;45620;-74
2023/03/21 10:30:29;;;;;;;;;4.75;4.00;;;;;14.88;55.96;100806.50;5074375;27;46467;-73
2023/03/21 10:33:04;;;;;;;;;4.00;4.00;;;;;14.93;55.89;100808.75;5073853;27;46985;-75
2023/03/21 10:35:32;;;;;;;;;3.25;3.25;;;;;14.95;56.01;100797.09;5074112;27;45571;-74
2023/03/21 10:38:00;;;;;;;;;6.50;6.00;;;;;15.00;55.97;100791.44;5074308;27;45747;-74
2023/03/21 10:40:25;;;;;;;;;5.00;4.00;;;;;15.00;56.00;100779.09;5073843;27;46736;-74
2023/03/21 10:42:55;;;;;;;;;4.00;4.00;;;;;15.09;56.10;100788.81;5074069;28;46170;-75
2023/03/21 10:45:22;;;;;;;;;6.25;5.00;;;;;15.13;55.82;100778.81;5073405;27;45947;-74
2023/03/21 10:47:49;;;;;;;;;2.25;1.50;;;;;15.18;55.90;100768.69;5071592;28;46041;-74
2023/03/21 10:50:25;;;;;;;;;5.00;3.00;;;;;15.24;56.13;100789.28;5074117;27;45663;-74
2023/03/21 10:52:59;;;;;;;;;5.00;4.00;;;;;15.28;56.30;100780.13;5073882;27;46077;-74
2023/03/21 10:55:33;;;;;;;;;5.00;4.00;;;;;15.37;56.01;100783.78;5073822;27;45639;-74
2023/03/21 10:58:02;;;;;;;;;4.00;3.00;;;;;15.42;56.07;100779.75;5074052;27;45621;-74
2023/03/21 11:00:35;;;;;;;;;4.00;4.00;;;;;15.46;56.06;100786.44;5089673;27;46841;-75
2023/03/21 11:03:00;;;;;;;;;4.00;3.00;;;;;15.48;56.09;100783.66;5089460;27;47159;-74
2023/03/21 11:05:32;;;;;;;;;4.75;4.00;;;;;15.53;55.91;100784.94;5089462;27;45799;-75
2023/03/21 11:08:09;;;;;;;;;1.25;1.25;;;;;15.60;56.04;100781.78;5074121;28;45861;-74
2023/03/21 11:10:46;;;;;;;;;1.50;1.50;;;;;15.63;55.84;100784.13;5073907;27;46438;-75
2023/03/21 11:13:31;;;;;;;;;4.00;3.00;;;;;15.58;55.91;100784.53;5073394;27;45588;-74
2023/03/21 11:16:06;;;;;;;;;3.00;3.00;;;;;15.47;55.82;100758.22;5073533;27;45626;-75
2023/03/21 11:18:34;;;;;;;;;3.00;3.00;;;;;15.42;55.89;100758.63;5073360;27;45802;-75
2023/03/21 11:21:06;;;;;;;;;6.00;4.00;;;;;15.46;56.21;100767.09;5089298;27;48827;-76
2023/03/21 11:23:34;;;;;;;;;6.00;3.00;;;;;15.59;56.13;100773.00;5088643;27;48442;-75
2023/03/21 11:26:01;;;;;;;;;6.25;4.25;;;;;15.66;56.28;100771.47;5073643;27;45568;-75
2023/03/21 11:28:38;;;;;;;;;5.25;4.00;;;;;15.74;56.16;100779.56;5073869;27;45627;-73
2023/03/21 11:31:05;;;;;;;;;3.25;3.00;;;;;15.80;56.04;100779.00;5073225;27;46345;-73
2023/03/21 11:33:52;;;;;;;;;4.75;4.75;;;;;15.89;55.93;100766.75;5088844;27;48235;-74
2023/03/21 11:36:17;;;;;;;;;6.00;4.75;;;;;15.97;55.54;100781.94;5073311;27;45629;-76
2023/03/21 11:38:47;;;;;;;;;4.67;4.67;;;;;15.90;55.84;100761.34;5073596;28;45688;-76
2023/03/21 11:41:22;;;;;;;;;6.00;4.75;;;;;15.92;55.70;100766.50;5073342;27;45799;-75
2023/03/21 11:43:51;;;;;;;;;6.00;6.00;;;;;16.04;55.94;100770.63;5072959;27;47136;-75
2023/03/21 11:46:23;;;;;;;;;5.75;5.75;;;;;16.11;55.80;100781.50;5072978;27;45676;-74
2023/03/21 11:48:48;;;;;;;;;4.75;4.25;;;;;16.18;55.67;100767.59;5071858;28;45876;-75
2023/03/21 11:51:39;;;;;;;;;4.00;3.25;;;;;16.24;55.79;100768.84;5072760;27;45739;-75
2023/03/21 11:54:18;;;;;;;;;3.25;3.25;;;;;16.31;55.78;100770.75;5072796;28;46294;-75
2023/03/21 11:56:53;;;;;;;;;5.00;5.00;;;;;16.36;55.44;100770.31;5072775;27;45742;-74
2023/03/21 12:02:54;;;;;;;;;6.00;5.50;;;;;16.39;55.48;100770.06;5072354;28;46049;-75
2023/03/21 12:05:27;;;;;;;;;6.00;5.00;;;;;16.46;55.22;100772.97;5072540;27;46268;-74
2023/03/21 12:08:16;;;;;;;;;5.50;4.75;;;;;16.43;55.32;100789.09;5072812;27;45711;-75
2023/03/21 12:11:04;;;;;;;;;7.50;5.00;;;;;16.36;55.62;100772.97;5073147;27;45567;-73
2023/03/21 12:13:50;;;;;;;;;3.75;3.00;;;;;16.33;55.62;100776.75;5072287;27;47610;-76
2023/03/21 12:20:09;;;;;;;;;4.00;4.00;;;;;16.17;55.72;100773.84;5072904;28;45569;-74
2023/03/21 12:22:58;;;;;;;;;5.75;4.75;;;;;16.09;55.82;100760.47;5088687;27;45994;-74
2023/03/21 12:25:31;;;;;;;;;4.00;3.50;;;;;16.01;56.25;100757.72;5088381;27;47945;-73
2023/03/21 12:28:10;;;;;;;;;5.75;5.00;;;;;16.00;56.33;100760.50;5072628;27;46057;-75
2023/03/21 12:30:41;;;;;;;;;5.75;4.00;;;;;15.96;56.40;100749.38;5087998;27;45919;-74
2023/03/21 12:33:20;;;;;;;;;5.25;5.00;;;;;15.99;56.34;100749.09;5072500;28;45731;-74
2023/03/21 12:35:59;;;;;;;;;3.75;3.50;;;;;15.99;56.40;100754.38;5071187;28;46645;-75
2023/03/21 12:38:34;;;;;;;;;5.25;4.50;;;;;15.97;56.71;100737.00;5072359;28;47132;-75
2023/03/21 12:41:11;;;;;;;;;6.00;5.00;;;;;16.02;56.70;100734.78;5072713;27;45578;-75
2023/03/21 12:43:53;;;;;;;;;3.75;3.75;;;;;16.00;56.60;100736.72;5088158;27;45838;-75
2023/03/21 12:46:35;;;;;;;;;8.00;5.00;;;;;15.86;56.73;100717.69;5072455;27;46781;-74
2023/03/21 12:49:09;;;;;;;;;5.25;4.50;;;;;15.99;56.90;100730.59;5072213;27;46473;-74